This is the latest recevied weather packets stored in our database for station/object KM7BEO. If no packets are shown the sender has not sent any weather packets the latest 1 day(s).
| Time | Temp. | Humidity | Pressure | Rain* | Wind** | Luminosity | Snow |
|---|---|---|---|---|---|---|---|
| 1778038979 | 11.11° C | 87% | 1014.5 hPa | 0 mm | - | 1 W/m² | - |
| 1778038676 | 11.11° C | 87% | 1014.5 hPa | 0 mm | - | 1 W/m² | - |
| 1778038070 | 11.67° C | 86% | 1014.5 hPa | 0 mm | - | 4 W/m² | - |
| 1778037464 | 11.67° C | 84% | 1014.5 hPa | 0 mm | - | 7 W/m² | - |
| 1778037161 | 12.22° C | 84% | 1014.6 hPa | 0 mm | - | 9 W/m² | - |
| 1778036859 | 12.22° C | 83% | 1014.6 hPa | 0 mm | - | 12 W/m² | - |
| 1778036253 | 12.78° C | 82% | 1014.4 hPa | 0 mm | - | 17 W/m² | - |
| 1778035950 | 12.78° C | 81% | 1014.6 hPa | 0 mm | - | 20 W/m² | - |
| 1778035646 | 12.78° C | 81% | 1014.5 hPa | 0 mm | - | 23 W/m² | - |
| 1778035343 | 12.78° C | 80% | 1014.5 hPa | 0 mm | - | 25 W/m² | - |
| 1778035039 | 13.33° C | 80% | 1014.5 hPa | 0 mm | - | 26 W/m² | - |
| 1778034737 | 13.33° C | 79% | 1014.3 hPa | 0 mm | - | 29 W/m² | - |
| 1778034433 | 13.89° C | 78% | 1014.4 hPa | 0 mm | - | 34 W/m² | - |
| 1778033829 | 13.89° C | 78% | 1014.5 hPa | 0 mm | - | 37 W/m² | - |
| 1778033526 | 13.89° C | 77% | 1014.4 hPa | 0 mm | - | 36 W/m² | - |
| 1778033223 | 14.44° C | 77% | 1014.5 hPa | 0 mm | - | 45 W/m² | - |
| 1778032921 | 14.44° C | 76% | 1014.4 hPa | 0 mm | - | 68 W/m² | - |
| 1778032618 | 14.44° C | 75% | 1014.5 hPa | 0 mm | - | 99 W/m² | - |
| 1778031708 | 15° C | 74% | 1014.5 hPa | 0 mm | - | 161 W/m² | - |
| 1778031406 | 15° C | 75% | 1014.5 hPa | 0 mm | - | 120 W/m² | - |
| 1778031103 | 15° C | 76% | 1014.4 hPa | 0 mm | - | 54 W/m² | - |
| 1778030799 | 15° C | 75% | 1014.5 hPa | 0 mm | - | 50 W/m² | - |
| 1778030496 | 15° C | 75% | 1014.5 hPa | 0 mm | - | 74 W/m² | - |
| 1778028982 | 16.11° C | 73% | 1014.4 hPa | 0 mm | - | 264 W/m² | - |
| 1778028678 | 16.11° C | 74% | 1014.3 hPa | 0 mm | - | 206 W/m² | - |
* Rain latest hour (hover to see other rain measurements)
** Current wind speed in m/s (hover to see current wind gust speed)